createdAt,value
2022-09-04T00:03:05.918Z,101038.00
2022-09-04T00:09:23.008Z,101025.00
2022-09-04T00:15:35.280Z,101020.00
2022-09-04T00:21:45.467Z,101030.00
2022-09-04T00:27:53.049Z,101032.00
2022-09-04T00:34:13.048Z,101030.00
2022-09-04T00:40:31.167Z,101037.00
2022-09-04T00:46:45.084Z,101031.00
2022-09-04T00:53:33.132Z,101051.00
2022-09-04T00:59:44.274Z,101044.00
2022-09-04T01:06:04.587Z,101041.00
2022-09-04T01:12:23.406Z,101043.00
2022-09-04T01:18:35.579Z,101054.00
2022-09-04T01:25:03.374Z,101048.00
2022-09-04T01:31:14.708Z,101063.00
2022-09-04T01:37:44.650Z,101056.00
2022-09-04T01:43:47.146Z,101057.00
2022-09-04T01:50:01.568Z,101061.00
2022-09-04T01:56:21.432Z,101074.00
2022-09-04T02:02:44.830Z,101066.00
2022-09-04T02:09:01.471Z,101066.00
2022-09-04T02:15:29.990Z,101067.00
2022-09-04T02:21:37.868Z,101052.00
2022-09-04T02:28:19.036Z,101054.00
2022-09-04T02:34:27.288Z,101051.00
2022-09-04T02:40:38.826Z,101045.00
2022-09-04T02:46:51.599Z,101052.00
2022-09-04T02:53:03.485Z,101062.00
2022-09-04T02:59:21.946Z,101064.00
2022-09-04T03:05:42.639Z,101066.00
2022-09-04T03:11:48.366Z,101063.00
2022-09-04T03:18:17.145Z,101071.00
2022-09-04T03:24:22.357Z,101072.00
2022-09-04T03:30:25.854Z,101071.00
2022-09-04T03:36:44.216Z,101072.00
2022-09-04T03:43:11.353Z,101072.00
2022-09-04T03:49:43.090Z,101071.00
2022-09-04T03:55:45.472Z,101094.00
2022-09-04T04:01:50.470Z,101086.00
2022-09-04T04:08:22.928Z,101099.00
2022-09-04T04:15:12.752Z,101081.00
2022-09-04T04:21:56.685Z,101109.00
2022-09-04T04:28:39.742Z,101116.00
2022-09-04T04:35:10.858Z,101124.00
2022-09-04T04:41:58.957Z,101125.00
2022-09-04T04:48:25.495Z,101101.00
2022-09-04T04:54:44.488Z,101114.00
2022-09-04T05:01:06.571Z,101130.00
2022-09-04T05:07:36.549Z,101145.00
2022-09-04T05:14:01.247Z,101151.00
2022-09-04T05:20:20.997Z,101163.00
2022-09-04T05:26:51.345Z,101164.00
2022-09-04T05:33:06.439Z,101142.00
2022-09-04T05:39:28.574Z,101160.00
2022-09-04T05:46:04.759Z,101170.00
2022-09-04T05:52:18.951Z,101178.00
2022-09-04T05:58:30.004Z,101180.00
2022-09-04T06:05:10.510Z,101195.00
2022-09-04T06:11:21.966Z,101206.00
2022-09-04T06:17:35.792Z,101218.00
2022-09-04T06:23:51.510Z,101219.00
2022-09-04T06:30:10.767Z,101227.00
2022-09-04T06:36:24.002Z,101221.00
2022-09-04T06:42:35.661Z,101216.00
2022-09-04T06:48:44.703Z,101231.00
2022-09-04T06:54:56.578Z,101235.00
2022-09-04T07:01:09.261Z,101234.00
2022-09-04T07:07:46.810Z,101228.00
2022-09-04T07:14:25.386Z,101219.00
2022-09-04T07:20:58.971Z,101210.00
2022-09-04T07:27:25.881Z,101228.00
2022-09-04T07:34:08.526Z,101237.00
2022-09-04T07:40:21.625Z,101224.00
2022-09-04T07:47:02.506Z,101217.00
2022-09-04T07:53:15.047Z,101214.00
2022-09-04T07:59:24.594Z,101219.00
2022-09-04T08:05:49.745Z,101205.00
2022-09-04T08:12:12.138Z,101219.00
2022-09-04T08:18:37.339Z,101231.00
2022-09-04T08:25:22.415Z,101221.00
2022-09-04T08:31:30.766Z,101206.00
2022-09-04T08:37:53.257Z,101193.00
2022-09-04T08:44:27.403Z,101185.00
2022-09-04T08:51:00.640Z,101190.00
2022-09-04T08:57:21.454Z,101214.00
2022-09-04T09:03:51.551Z,101207.00
2022-09-04T09:10:38.011Z,101222.00
2022-09-04T09:16:44.321Z,101227.00
2022-09-04T09:23:05.218Z,101215.00
2022-09-04T09:29:42.146Z,101219.00
2022-09-04T09:36:16.894Z,101214.00
2022-09-04T09:42:31.883Z,101215.00
2022-09-04T09:48:49.728Z,101202.00
2022-09-04T09:55:10.518Z,101094.00
2022-09-04T10:01:25.201Z,101215.00
2022-09-04T10:07:35.083Z,101237.00
2022-09-04T10:13:55.331Z,101205.00
2022-09-04T10:20:36.561Z,101136.00
2022-09-04T10:27:16.721Z,101143.00
2022-09-04T10:33:37.603Z,101153.00
2022-09-04T10:40:17.538Z,101226.00
2022-09-04T10:46:32.570Z,101253.00
2022-09-04T10:52:48.725Z,101248.00
2022-09-04T10:59:25.980Z,101226.00
2022-09-04T11:06:16.407Z,101216.00
2022-09-04T11:13:07.175Z,101216.00
2022-09-04T11:19:46.437Z,101211.00
2022-09-04T11:25:48.704Z,101210.00
2022-09-04T11:32:28.075Z,101187.00
2022-09-04T11:38:45.413Z,101093.00
2022-09-04T11:45:09.456Z,101201.00
2022-09-04T11:51:40.375Z,101197.00
2022-09-04T11:58:10.134Z,101171.00
2022-09-04T12:04:49.598Z,101195.00
2022-09-04T12:11:10.634Z,101182.00
2022-09-04T12:17:48.597Z,101188.00
2022-09-04T12:24:15.240Z,101186.00
2022-09-04T12:30:25.951Z,101165.00
2022-09-04T12:37:06.947Z,101100.00
2022-09-04T12:43:33.664Z,101166.00
2022-09-04T12:49:53.915Z,101156.00
2022-09-04T12:56:06.259Z,101096.00
2022-09-04T13:02:20.686Z,101164.00
2022-09-04T13:08:54.488Z,101164.00
2022-09-04T13:15:08.032Z,101164.00
2022-09-04T13:21:38.497Z,101168.00
2022-09-04T13:27:41.124Z,101164.00
2022-09-04T13:34:18.778Z,101163.00
2022-09-04T13:40:55.294Z,101165.00
2022-09-04T13:47:15.470Z,101155.00
2022-09-04T13:53:26.237Z,101162.00
2022-09-04T13:59:29.567Z,101166.00
2022-09-04T14:05:34.791Z,101173.00
2022-09-04T14:11:37.532Z,101171.00
2022-09-04T14:18:24.490Z,101165.00
2022-09-04T14:25:06.682Z,101176.00
2022-09-04T14:31:16.616Z,101185.00
2022-09-04T14:37:40.821Z,101184.00
2022-09-04T14:43:59.816Z,101197.00
2022-09-04T14:50:02.287Z,101192.00
2022-09-04T14:56:10.550Z,101202.00
2022-09-04T15:02:20.269Z,101189.00
2022-09-04T15:08:39.952Z,101185.00
2022-09-04T15:14:46.802Z,101188.00
2022-09-04T15:21:02.275Z,101199.00
2022-09-04T15:27:40.976Z,101194.00
2022-09-04T15:33:45.186Z,101197.00
2022-09-04T15:40:12.337Z,101205.00
2022-09-04T15:46:24.225Z,101203.00
2022-09-04T15:52:52.788Z,101207.00
2022-09-04T15:59:16.160Z,101205.00
2022-09-04T16:05:25.294Z,101194.00
2022-09-04T16:11:47.270Z,101193.00
2022-09-04T16:17:55.901Z,101192.00
2022-09-04T16:24:00.212Z,101195.00
2022-09-04T16:30:05.700Z,101194.00
2022-09-04T16:36:24.426Z,101196.00
2022-09-04T16:42:41.379Z,101194.00
2022-09-04T16:48:58.248Z,101196.00
2022-09-04T16:55:25.189Z,101201.00
2022-09-04T17:01:38.908Z,101200.00
2022-09-04T17:07:47.492Z,101212.00
2022-09-04T17:13:58.726Z,101207.00
2022-09-04T17:20:20.017Z,101218.00
2022-09-04T17:29:13.160Z,101230.00
2022-09-04T17:37:42.034Z,101238.00
2022-09-04T17:40:40.274Z,101230.00
2022-09-04T17:45:59.818Z,101249.00
2022-09-04T17:52:07.425Z,101251.00
2022-09-04T17:58:40.374Z,101276.00
2022-09-04T18:05:10.869Z,101265.00
2022-09-04T18:11:24.635Z,101273.00
2022-09-04T18:17:35.989Z,101276.00
2022-09-04T18:23:51.423Z,101276.00
2022-09-04T18:34:50.200Z,101279.00
2022-09-04T18:37:19.827Z,101285.00
2022-09-04T18:50:23.119Z,101274.00
2022-09-04T18:50:48.100Z,101300.00
2022-09-04T18:56:20.904Z,101295.00
2022-09-04T19:02:29.960Z,101301.00
2022-09-04T19:08:38.089Z,101296.00
2022-09-04T19:14:43.468Z,101295.00
2022-09-04T19:20:54.049Z,101300.00
2022-09-04T19:26:58.099Z,101288.00
2022-09-04T19:33:33.710Z,101289.00
2022-09-04T19:45:55.351Z,101298.00
2022-09-04T19:46:27.874Z,101291.00
2022-09-04T19:53:30.005Z,101295.00
2022-09-04T19:59:12.225Z,101297.00
2022-09-04T20:05:30.054Z,101296.00
2022-09-04T20:11:39.719Z,101293.00
2022-09-04T20:18:11.977Z,101301.00
2022-09-04T20:24:25.277Z,101304.00
2022-09-04T20:30:30.112Z,101303.00
2022-09-04T20:36:37.426Z,101301.00
2022-09-04T20:43:18.047Z,101303.00
2022-09-04T20:53:06.250Z,101306.00
2022-09-04T20:59:23.657Z,101300.00
2022-09-04T21:03:29.033Z,101289.00
2022-09-04T21:09:37.455Z,101294.00
2022-09-04T21:16:05.911Z,101287.00
2022-09-04T21:22:32.560Z,101299.00
2022-09-04T21:28:36.113Z,101283.00
2022-09-04T21:35:24.959Z,101281.00
2022-09-04T21:41:51.070Z,101281.00
2022-09-04T21:47:59.377Z,101283.00
2022-09-04T21:54:18.458Z,101287.00
2022-09-04T22:02:44.442Z,101284.00
2022-09-04T22:12:13.089Z,101287.00
2022-09-04T22:14:15.872Z,101280.00
2022-09-04T22:20:45.857Z,101277.00
2022-09-04T22:27:12.644Z,101285.00
2022-09-04T22:33:14.695Z,101276.00
2022-09-04T22:39:44.578Z,101267.00
2022-09-04T22:46:16.868Z,101268.00
2022-09-04T22:53:05.495Z,101265.00
2022-09-04T22:59:26.277Z,101273.00
2022-09-04T23:05:37.634Z,101272.00
2022-09-04T23:13:51.185Z,101274.00
2022-09-04T23:21:10.590Z,101270.00
2022-09-04T23:26:51.087Z,101260.00
2022-09-04T23:32:22.466Z,101266.00
2022-09-04T23:38:28.954Z,101257.00
2022-09-04T23:45:03.253Z,101265.00
2022-09-04T23:51:17.689Z,101275.00
2022-09-04T23:57:29.423Z,101279.00
